createdAt,value
2023-05-21T00:01:19.071Z,14.53
2023-05-21T00:03:46.386Z,14.46
2023-05-21T00:06:13.684Z,14.46
2023-05-21T00:08:40.565Z,14.57
2023-05-21T00:11:07.325Z,14.51
2023-05-21T00:13:34.239Z,14.13
2023-05-21T00:16:00.894Z,14.52
2023-05-21T00:18:27.578Z,14.58
2023-05-21T00:20:54.515Z,14.63
2023-05-21T00:23:21.471Z,14.77
2023-05-21T00:25:48.131Z,14.69
2023-05-21T00:28:14.780Z,14.73
2023-05-21T00:30:43.074Z,14.76
2023-05-21T00:33:10.536Z,14.72
2023-05-21T00:35:37.441Z,14.66
2023-05-21T00:38:04.239Z,14.40
2023-05-21T00:40:31.151Z,14.39
2023-05-21T00:42:58.047Z,14.08
2023-05-21T00:45:25.484Z,14.44
2023-05-21T00:47:54.733Z,14.55
2023-05-21T00:50:23.126Z,14.63
2023-05-21T00:52:50.195Z,14.52
2023-05-21T00:55:17.025Z,14.60
2023-05-21T00:57:45.958Z,14.69
2023-05-21T01:00:15.183Z,14.73
2023-05-21T01:02:42.199Z,14.78
2023-05-21T01:05:09.856Z,14.77
2023-05-21T01:07:39.780Z,14.42
2023-05-21T01:10:08.802Z,14.95
2023-05-21T01:12:37.918Z,14.79
2023-05-21T01:15:05.638Z,14.88
2023-05-21T01:17:34.163Z,14.64
2023-05-21T01:20:01.891Z,15.03
2023-05-21T01:22:32.451Z,15.02
2023-05-21T01:25:02.731Z,15.08
2023-05-21T01:27:29.583Z,15.19
2023-05-21T01:29:57.102Z,15.06
2023-05-21T01:32:34.251Z,15.20
2023-05-21T01:35:08.142Z,14.52
2023-05-21T01:37:46.151Z,14.32
2023-05-21T01:40:34.546Z,15.35
2023-05-21T01:43:02.937Z,15.27
2023-05-21T01:45:32.136Z,15.41
2023-05-21T01:47:59.474Z,15.32
2023-05-21T01:50:26.973Z,15.00
2023-05-21T01:53:00.935Z,15.42
2023-05-21T01:55:31.232Z,15.28
2023-05-21T01:58:02.050Z,15.36
2023-05-21T02:00:29.538Z,15.23
2023-05-21T02:02:56.800Z,15.25
2023-05-21T02:05:23.584Z,15.23
2023-05-21T02:07:52.033Z,15.05
2023-05-21T02:10:19.204Z,15.12
2023-05-21T02:12:47.077Z,15.07
2023-05-21T02:15:18.222Z,15.06
2023-05-21T02:17:51.266Z,14.98
2023-05-21T02:20:18.091Z,14.88
2023-05-21T02:22:46.333Z,14.74
2023-05-21T02:25:15.875Z,14.71
2023-05-21T02:27:43.376Z,14.65
2023-05-21T02:30:15.549Z,14.55
2023-05-21T02:32:43.328Z,14.57
2023-05-21T02:35:12.651Z,14.41
2023-05-21T02:37:40.483Z,14.17
2023-05-21T02:40:08.323Z,14.32
2023-05-21T02:42:36.540Z,14.19
2023-05-21T02:45:03.565Z,14.22
2023-05-21T02:47:30.610Z,14.06
2023-05-21T02:49:59.789Z,14.15
2023-05-21T02:52:26.597Z,14.11
2023-05-21T02:54:53.457Z,13.94
2023-05-21T02:57:20.481Z,13.90
2023-05-21T02:59:47.267Z,13.97
2023-05-21T03:02:14.173Z,13.91
2023-05-21T03:04:46.261Z,13.42
2023-05-21T03:07:19.062Z,13.43
2023-05-21T03:09:46.796Z,13.78
2023-05-21T03:12:14.496Z,13.79
2023-05-21T03:14:46.398Z,13.80
2023-05-21T03:17:17.099Z,13.78
2023-05-21T03:19:44.607Z,13.30
2023-05-21T03:22:11.577Z,13.71
2023-05-21T03:24:41.436Z,13.49
2023-05-21T03:27:08.966Z,13.23
2023-05-21T03:29:36.241Z,13.21
2023-05-21T03:32:03.930Z,13.44
2023-05-21T03:34:34.488Z,13.61
2023-05-21T03:37:02.124Z,13.68
2023-05-21T03:39:31.568Z,13.72
2023-05-21T03:41:59.146Z,13.76
2023-05-21T03:44:39.089Z,13.73
2023-05-21T03:47:24.711Z,13.90
2023-05-21T03:49:53.662Z,13.84
2023-05-21T03:52:20.427Z,14.01
2023-05-21T03:54:47.041Z,13.99
2023-05-21T03:57:13.707Z,13.90
2023-05-21T03:59:40.754Z,13.84
2023-05-21T04:02:07.476Z,13.87
2023-05-21T04:04:34.448Z,13.91
2023-05-21T04:07:01.137Z,13.96
2023-05-21T04:09:28.051Z,14.04
2023-05-21T04:11:55.369Z,14.12
2023-05-21T04:14:25.044Z,14.07
2023-05-21T04:16:53.584Z,14.09
2023-05-21T04:19:21.473Z,14.27
2023-05-21T04:21:49.048Z,14.31
2023-05-21T04:24:16.324Z,14.25
2023-05-21T04:26:51.251Z,13.91
2023-05-21T04:29:21.001Z,14.32
2023-05-21T04:31:49.721Z,14.31
2023-05-21T04:34:17.931Z,14.50
2023-05-21T04:36:45.824Z,14.56
2023-05-21T04:39:14.513Z,14.51
2023-05-21T04:41:41.235Z,14.64
2023-05-21T04:44:08.919Z,14.44
2023-05-21T04:46:36.008Z,14.60
2023-05-21T04:49:03.110Z,14.68
2023-05-21T04:51:30.823Z,14.39
2023-05-21T04:53:58.169Z,14.45
2023-05-21T04:56:27.724Z,14.77
2023-05-21T04:58:54.537Z,14.85
2023-05-21T05:01:29.621Z,14.61
2023-05-21T05:03:56.690Z,14.84
2023-05-21T05:06:25.789Z,15.00
2023-05-21T05:08:52.795Z,14.98
2023-05-21T05:11:20.911Z,15.09
2023-05-21T05:13:47.655Z,15.24
2023-05-21T05:16:24.696Z,15.16
2023-05-21T05:18:52.882Z,15.11
2023-05-21T05:21:23.679Z,15.47
2023-05-21T05:23:50.414Z,15.03
2023-05-21T05:26:17.714Z,15.41
2023-05-21T05:28:45.881Z,15.55
2023-05-21T05:31:12.814Z,15.52
2023-05-21T05:33:40.990Z,15.57
2023-05-21T05:36:08.014Z,15.72
2023-05-21T05:38:36.022Z,15.16
2023-05-21T05:41:02.816Z,15.65
2023-05-21T05:43:29.404Z,15.80
2023-05-21T05:45:57.925Z,15.76
2023-05-21T05:48:24.580Z,15.87
2023-05-21T05:50:54.586Z,15.97
2023-05-21T05:53:22.342Z,15.64
2023-05-21T05:55:49.062Z,16.19
2023-05-21T05:58:17.047Z,16.28
2023-05-21T06:01:03.900Z,16.41
2023-05-21T06:03:30.971Z,16.51
2023-05-21T06:05:57.947Z,16.53
2023-05-21T06:08:26.695Z,16.65
2023-05-21T06:10:53.331Z,16.88
2023-05-21T06:13:19.983Z,16.84
2023-05-21T06:15:46.605Z,17.15
2023-05-21T06:18:14.742Z,17.29
2023-05-21T06:20:42.224Z,17.22
2023-05-21T06:23:09.638Z,17.38
2023-05-21T06:25:37.962Z,17.44
2023-05-21T06:28:05.304Z,17.48
2023-05-21T06:30:33.488Z,17.47
2023-05-21T06:33:00.829Z,17.52
2023-05-21T06:35:27.583Z,17.65
2023-05-21T06:37:54.367Z,17.79
2023-05-21T06:40:22.176Z,17.94
2023-05-21T06:42:52.143Z,18.15
2023-05-21T06:45:18.883Z,18.17
2023-05-21T06:47:46.274Z,18.24
2023-05-21T06:50:13.020Z,18.50
2023-05-21T06:52:40.222Z,18.57
2023-05-21T06:55:07.410Z,18.83
2023-05-21T06:57:54.028Z,18.80
2023-05-21T07:00:21.362Z,18.73
2023-05-21T07:02:48.515Z,18.88
2023-05-21T07:05:16.087Z,18.86
2023-05-21T07:07:43.823Z,19.04
2023-05-21T07:10:10.678Z,19.12
2023-05-21T07:12:40.732Z,19.19
2023-05-21T07:15:08.894Z,18.99
2023-05-21T07:17:35.800Z,18.99
2023-05-21T07:20:02.767Z,19.40
2023-05-21T07:22:30.423Z,19.38
2023-05-21T07:24:57.368Z,19.43
2023-05-21T07:27:25.812Z,19.65
2023-05-21T07:29:54.504Z,20.04
2023-05-21T07:32:21.712Z,20.24
2023-05-21T07:34:48.701Z,20.27
2023-05-21T07:37:15.636Z,21.05
2023-05-21T07:39:42.290Z,21.43
2023-05-21T07:42:10.827Z,21.66
2023-05-21T07:44:37.537Z,21.26
2023-05-21T07:47:04.669Z,21.23
2023-05-21T07:49:31.568Z,21.63
2023-05-21T07:51:58.352Z,21.86
2023-05-21T07:54:25.185Z,22.06
2023-05-21T07:56:52.812Z,21.94
2023-05-21T07:59:41.724Z,22.39
2023-05-21T08:02:08.380Z,22.62
2023-05-21T08:04:36.566Z,22.83
2023-05-21T08:07:06.196Z,22.90
2023-05-21T08:09:33.109Z,22.83
2023-05-21T08:11:59.990Z,22.92
2023-05-21T08:14:26.827Z,22.64
2023-05-21T08:16:53.735Z,23.11
2023-05-21T08:19:20.791Z,23.04
2023-05-21T08:21:47.722Z,23.31
2023-05-21T08:24:14.937Z,23.51
2023-05-21T08:26:41.581Z,23.55
2023-05-21T08:29:08.275Z,23.51
2023-05-21T08:31:35.039Z,23.35
2023-05-21T08:34:01.845Z,22.99
2023-05-21T08:36:43.176Z,22.81
2023-05-21T08:39:23.257Z,22.91
2023-05-21T08:41:54.301Z,23.03
2023-05-21T08:44:22.199Z,23.31
2023-05-21T08:46:51.131Z,23.64
2023-05-21T08:49:22.459Z,23.70
2023-05-21T08:51:50.253Z,23.63
2023-05-21T08:54:17.099Z,24.11
2023-05-21T08:56:49.528Z,24.51
2023-05-21T08:59:18.236Z,24.77
2023-05-21T09:01:45.964Z,24.74
2023-05-21T09:04:23.790Z,25.45
2023-05-21T09:06:54.791Z,25.78
2023-05-21T09:09:53.046Z,25.81
2023-05-21T09:12:19.902Z,25.78
2023-05-21T09:14:47.772Z,25.90
2023-05-21T09:17:17.863Z,25.88
2023-05-21T09:20:16.627Z,26.10
2023-05-21T09:22:53.547Z,26.17
2023-05-21T09:25:28.151Z,25.89
2023-05-21T09:28:01.820Z,25.97
2023-05-21T09:30:35.008Z,26.19
2023-05-21T09:33:03.419Z,26.43
2023-05-21T09:35:30.982Z,26.80
2023-05-21T09:37:57.793Z,26.18
2023-05-21T09:40:24.728Z,26.40
2023-05-21T09:42:53.048Z,26.04
2023-05-21T09:45:25.128Z,25.52
2023-05-21T09:47:55.842Z,25.89
2023-05-21T09:50:24.693Z,25.84
2023-05-21T09:52:53.058Z,26.68
2023-05-21T09:55:23.106Z,26.17
2023-05-21T09:57:51.006Z,26.38
2023-05-21T10:00:24.657Z,26.05
2023-05-21T10:02:56.155Z,25.71
2023-05-21T10:05:26.569Z,26.24
2023-05-21T10:07:59.200Z,26.39
2023-05-21T10:10:28.307Z,26.21
2023-05-21T10:12:59.566Z,26.74
2023-05-21T10:15:28.470Z,26.91
2023-05-21T10:17:56.368Z,27.41
2023-05-21T10:20:23.422Z,27.40
2023-05-21T10:22:50.730Z,27.78
2023-05-21T10:25:17.569Z,28.23
2023-05-21T10:27:45.253Z,28.12
2023-05-21T10:30:12.373Z,28.30
2023-05-21T10:32:41.484Z,28.96
2023-05-21T10:35:09.424Z,28.41
2023-05-21T10:37:36.634Z,28.59
2023-05-21T10:40:04.451Z,28.74
2023-05-21T10:42:30.978Z,29.06
2023-05-21T10:45:16.088Z,28.60
2023-05-21T10:47:54.937Z,28.56
2023-05-21T10:50:49.989Z,29.19
2023-05-21T10:53:34.016Z,29.64
2023-05-21T10:56:28.198Z,29.66
2023-05-21T10:59:07.154Z,30.15
2023-05-21T11:01:36.533Z,30.39
2023-05-21T11:04:06.700Z,30.41
2023-05-21T11:06:33.339Z,30.33
2023-05-21T11:09:18.307Z,30.89
2023-05-21T11:11:51.189Z,31.14
2023-05-21T11:14:38.956Z,30.93
2023-05-21T11:17:38.485Z,30.82
2023-05-21T11:20:10.554Z,30.30
2023-05-21T11:22:37.895Z,30.56
2023-05-21T11:25:05.044Z,30.68
2023-05-21T11:27:35.043Z,30.54
2023-05-21T11:30:09.728Z,30.35
2023-05-21T11:32:41.167Z,30.50
2023-05-21T11:35:08.252Z,30.86
2023-05-21T11:37:35.261Z,31.31
2023-05-21T11:40:19.188Z,31.39
2023-05-21T11:42:50.718Z,31.48
2023-05-21T11:45:19.056Z,31.55
2023-05-21T11:47:46.937Z,31.24
2023-05-21T11:50:14.970Z,31.13
2023-05-21T11:52:42.309Z,31.55
2023-05-21T11:55:09.716Z,31.94
2023-05-21T11:57:37.253Z,31.95
2023-05-21T12:00:14.490Z,32.15
2023-05-21T12:02:46.424Z,32.23
2023-05-21T12:05:13.447Z,32.07
2023-05-21T12:07:40.183Z,32.30
2023-05-21T12:10:07.884Z,32.85
2023-05-21T12:12:49.971Z,32.61
2023-05-21T12:15:22.776Z,31.52
2023-05-21T12:17:51.011Z,31.69
2023-05-21T12:20:17.753Z,32.01
2023-05-21T12:22:44.753Z,31.96
2023-05-21T12:25:12.299Z,32.45
2023-05-21T12:27:39.817Z,32.61
2023-05-21T12:30:07.242Z,32.46
2023-05-21T12:32:34.041Z,32.65
2023-05-21T12:35:00.865Z,32.98
2023-05-21T12:37:31.375Z,32.39
2023-05-21T12:40:00.336Z,32.81
2023-05-21T12:42:30.494Z,32.39
2023-05-21T12:44:57.843Z,33.21
2023-05-21T12:47:26.566Z,32.94
2023-05-21T12:50:04.069Z,32.72
2023-05-21T12:52:31.022Z,33.39
2023-05-21T12:54:58.829Z,33.76
2023-05-21T12:57:35.687Z,33.59
2023-05-21T13:00:04.393Z,33.76
2023-05-21T13:02:32.158Z,33.92
2023-05-21T13:05:06.908Z,33.94
2023-05-21T13:07:38.257Z,34.14
2023-05-21T13:10:06.036Z,33.93
2023-05-21T13:12:34.040Z,33.48
2023-05-21T13:15:02.009Z,32.92
2023-05-21T13:17:28.903Z,32.35
2023-05-21T13:20:15.813Z,31.23
2023-05-21T13:22:52.643Z,30.68
2023-05-21T13:25:20.955Z,30.55
2023-05-21T13:27:49.162Z,30.53
2023-05-21T13:30:15.808Z,30.40
2023-05-21T13:32:42.766Z,31.81
2023-05-21T13:35:11.913Z,33.06
2023-05-21T13:37:42.029Z,33.36
2023-05-21T13:40:16.459Z,33.52
2023-05-21T13:42:45.232Z,33.48
2023-05-21T13:45:15.717Z,33.34
2023-05-21T13:47:43.701Z,33.34
2023-05-21T13:50:10.808Z,33.44
2023-05-21T13:52:38.680Z,33.62
2023-05-21T13:55:06.014Z,34.11
2023-05-21T13:57:32.731Z,34.57
2023-05-21T14:00:00.768Z,35.17
2023-05-21T14:02:27.602Z,35.50
2023-05-21T14:04:54.326Z,35.85
2023-05-21T14:07:22.025Z,35.63
2023-05-21T14:09:48.900Z,34.49
2023-05-21T14:12:15.752Z,33.71
2023-05-21T14:14:42.527Z,34.14
2023-05-21T14:17:09.157Z,35.16
2023-05-21T14:19:36.071Z,34.90
2023-05-21T14:22:02.711Z,33.95
2023-05-21T14:24:29.317Z,32.81
2023-05-21T14:26:55.918Z,32.10
2023-05-21T14:29:22.542Z,31.60
2023-05-21T14:31:49.255Z,31.68
2023-05-21T14:34:15.935Z,31.86
2023-05-21T14:36:42.572Z,31.96
2023-05-21T14:39:09.234Z,32.59
2023-05-21T14:41:38.743Z,32.82
2023-05-21T14:44:05.469Z,33.45
2023-05-21T14:46:32.561Z,34.06
2023-05-21T14:49:00.526Z,34.35
2023-05-21T14:51:27.223Z,34.28
2023-05-21T14:53:54.050Z,34.51
2023-05-21T14:56:22.842Z,34.87
2023-05-21T14:58:49.514Z,34.65
2023-05-21T15:01:16.247Z,33.95
2023-05-21T15:03:43.148Z,34.23
2023-05-21T15:06:09.913Z,33.81
2023-05-21T15:08:36.557Z,32.29
2023-05-21T15:11:03.126Z,33.37
2023-05-21T15:13:29.762Z,33.88
2023-05-21T15:15:56.549Z,34.46
2023-05-21T15:18:24.689Z,34.69
2023-05-21T15:20:51.496Z,34.85
2023-05-21T15:23:18.270Z,34.62
2023-05-21T15:25:45.657Z,34.62
2023-05-21T15:28:12.652Z,34.67
2023-05-21T15:30:39.931Z,34.73
2023-05-21T15:33:06.653Z,34.94
2023-05-21T15:35:35.298Z,34.51
2023-05-21T15:38:02.170Z,33.71
2023-05-21T15:40:28.830Z,33.50
2023-05-21T15:42:55.769Z,33.62
2023-05-21T15:45:22.403Z,34.21
2023-05-21T15:47:49.076Z,33.97
2023-05-21T15:50:15.902Z,33.90
2023-05-21T15:52:42.789Z,34.08
2023-05-21T15:55:09.999Z,34.11
2023-05-21T15:57:36.700Z,33.95
2023-05-21T16:00:04.869Z,34.35
2023-05-21T16:02:35.542Z,34.70
2023-05-21T16:05:02.588Z,34.00
2023-05-21T16:07:29.255Z,33.05
2023-05-21T16:09:55.945Z,33.04
2023-05-21T16:12:22.733Z,31.83
2023-05-21T16:14:52.211Z,31.83
2023-05-21T16:17:21.873Z,31.74
2023-05-21T16:19:48.492Z,31.52
2023-05-21T16:22:15.235Z,32.38
2023-05-21T16:24:41.871Z,32.78
2023-05-21T16:27:08.536Z,32.97
2023-05-21T16:29:35.313Z,31.88
2023-05-21T16:32:02.019Z,31.24
2023-05-21T16:34:28.715Z,30.26
2023-05-21T16:36:55.414Z,29.95
2023-05-21T16:39:22.422Z,29.71
2023-05-21T16:41:49.197Z,29.22
2023-05-21T16:44:16.862Z,28.86
2023-05-21T16:46:43.547Z,28.60
2023-05-21T16:49:10.181Z,29.05
2023-05-21T16:51:36.825Z,29.02
2023-05-21T16:54:04.717Z,28.97
2023-05-21T16:56:31.444Z,29.25
2023-05-21T16:58:58.064Z,29.04
2023-05-21T17:01:24.710Z,28.75
2023-05-21T17:03:51.873Z,28.68
2023-05-21T17:06:18.719Z,28.63
2023-05-21T17:08:45.467Z,28.24
2023-05-21T17:11:12.277Z,27.81
2023-05-21T17:13:38.860Z,27.48
2023-05-21T17:16:05.626Z,26.89
2023-05-21T17:18:32.370Z,27.23
2023-05-21T17:20:59.140Z,27.01
2023-05-21T17:23:25.793Z,26.78
2023-05-21T17:25:52.590Z,26.55
2023-05-21T17:28:19.440Z,26.11
2023-05-21T17:30:48.075Z,26.81
2023-05-21T17:33:16.508Z,26.66
2023-05-21T17:35:43.315Z,26.85
2023-05-21T17:38:10.310Z,26.42
2023-05-21T17:40:37.069Z,26.87
2023-05-21T17:43:04.818Z,26.47
2023-05-21T17:45:31.567Z,26.65
2023-05-21T17:48:00.179Z,26.16
2023-05-21T17:50:27.831Z,26.03
2023-05-21T17:52:54.505Z,25.78
2023-05-21T17:55:21.148Z,25.63
2023-05-21T17:57:47.839Z,25.45
2023-05-21T18:00:14.706Z,25.32
2023-05-21T18:02:41.349Z,25.11
2023-05-21T18:05:08.419Z,25.41
2023-05-21T18:07:35.120Z,25.32
2023-05-21T18:10:01.871Z,24.80
2023-05-21T18:12:28.587Z,24.75
2023-05-21T18:14:55.172Z,24.82
2023-05-21T18:17:22.028Z,25.11
2023-05-21T18:19:48.907Z,25.15
2023-05-21T18:22:15.527Z,25.25
2023-05-21T18:24:42.654Z,25.08
2023-05-21T18:27:09.360Z,24.99
2023-05-21T18:29:36.726Z,24.84
2023-05-21T18:32:04.043Z,24.86
2023-05-21T18:34:30.924Z,24.90
2023-05-21T18:36:58.645Z,24.82
2023-05-21T18:39:25.308Z,24.75
2023-05-21T18:42:01.548Z,24.73
2023-05-21T18:44:32.695Z,24.13
2023-05-21T18:46:59.420Z,24.34
2023-05-21T18:49:26.456Z,24.14
2023-05-21T18:51:53.541Z,24.10
2023-05-21T18:54:20.281Z,23.93
2023-05-21T18:56:46.864Z,23.51
2023-05-21T18:59:13.498Z,23.67
2023-05-21T19:01:40.137Z,23.42
2023-05-21T19:04:06.966Z,22.99
2023-05-21T19:06:33.616Z,23.04
2023-05-21T19:09:00.484Z,22.85
2023-05-21T19:11:30.935Z,22.79
2023-05-21T19:13:58.979Z,22.73
2023-05-21T19:16:25.820Z,22.43
2023-05-21T19:18:52.593Z,22.39
2023-05-21T19:21:19.440Z,21.95
2023-05-21T19:23:53.036Z,22.24
2023-05-21T19:26:21.337Z,22.01
2023-05-21T19:28:52.758Z,21.76
2023-05-21T19:31:19.971Z,21.58
2023-05-21T19:33:46.760Z,20.99
2023-05-21T19:36:13.625Z,21.29
2023-05-21T19:38:49.657Z,21.08
2023-05-21T19:41:17.562Z,20.62
2023-05-21T19:43:45.260Z,20.95
2023-05-21T19:46:11.933Z,20.82
2023-05-21T19:48:38.654Z,20.57
2023-05-21T19:51:05.470Z,20.55
2023-05-21T19:53:32.113Z,20.51
2023-05-21T19:55:58.752Z,19.88
2023-05-21T19:58:27.616Z,20.15
2023-05-21T20:00:57.635Z,20.04
2023-05-21T20:03:26.206Z,20.00
2023-05-21T20:05:53.017Z,19.96
2023-05-21T20:08:19.616Z,19.58
2023-05-21T20:10:48.004Z,19.92
2023-05-21T20:13:16.392Z,19.93
2023-05-21T20:15:42.926Z,19.87
2023-05-21T20:18:09.769Z,19.82
2023-05-21T20:20:38.050Z,19.63
2023-05-21T20:23:05.222Z,19.67
2023-05-21T20:25:31.931Z,19.32
2023-05-21T20:28:01.248Z,19.42
2023-05-21T20:30:54.659Z,19.43
2023-05-21T20:33:21.363Z,19.30
2023-05-21T20:35:47.984Z,18.77
2023-05-21T20:38:15.833Z,19.08
2023-05-21T20:40:44.175Z,19.10
2023-05-21T20:43:12.060Z,19.12
2023-05-21T20:45:39.410Z,19.02
2023-05-21T20:48:06.661Z,18.91
2023-05-21T20:50:34.783Z,18.87
2023-05-21T20:53:01.897Z,18.89
2023-05-21T20:55:28.516Z,18.83
2023-05-21T20:57:56.082Z,18.98
2023-05-21T21:00:22.757Z,18.95
2023-05-21T21:02:49.584Z,18.92
2023-05-21T21:05:16.357Z,18.43
2023-05-21T21:07:43.077Z,18.97
2023-05-21T21:10:10.799Z,18.91
2023-05-21T21:12:37.452Z,18.90
2023-05-21T21:15:04.376Z,18.89
2023-05-21T21:17:31.063Z,18.27
2023-05-21T21:19:57.727Z,18.91
2023-05-21T21:22:25.614Z,19.02
2023-05-21T21:24:52.271Z,19.02
2023-05-21T21:27:18.910Z,19.16
2023-05-21T21:29:45.719Z,19.09
2023-05-21T21:32:12.502Z,18.98
2023-05-21T21:34:39.054Z,19.30
2023-05-21T21:37:05.637Z,19.34
2023-05-21T21:39:32.263Z,19.34
2023-05-21T21:41:58.897Z,19.21
2023-05-21T21:44:25.616Z,19.12
2023-05-21T21:46:52.181Z,19.25
2023-05-21T21:49:19.938Z,19.26
2023-05-21T21:51:46.692Z,19.31
2023-05-21T21:54:13.404Z,19.27
2023-05-21T21:56:40.121Z,19.24
2023-05-21T21:59:06.809Z,19.27
2023-05-21T22:01:33.630Z,19.38
2023-05-21T22:04:00.316Z,19.28
2023-05-21T22:06:27.712Z,19.40
2023-05-21T22:08:54.682Z,19.50
2023-05-21T22:11:21.960Z,19.63
2023-05-21T22:13:48.890Z,19.63
2023-05-21T22:16:15.614Z,19.79
2023-05-21T22:18:43.567Z,19.75
2023-05-21T22:21:14.108Z,19.85
2023-05-21T22:23:42.014Z,19.42
2023-05-21T22:26:09.642Z,19.55
2023-05-21T22:28:36.345Z,19.83
2023-05-21T22:31:03.439Z,19.54
2023-05-21T22:33:31.270Z,19.87
2023-05-21T22:35:58.137Z,19.78
2023-05-21T22:38:24.982Z,19.46
2023-05-21T22:40:51.575Z,19.34
2023-05-21T22:43:18.313Z,19.40
2023-05-21T22:45:44.991Z,19.17
2023-05-21T22:48:11.796Z,18.92
2023-05-21T22:50:38.882Z,19.30
2023-05-21T22:53:06.841Z,19.24
2023-05-21T22:55:33.553Z,19.27
2023-05-21T22:58:00.288Z,19.28
2023-05-21T23:00:27.117Z,19.27
2023-05-21T23:02:54.684Z,19.37
2023-05-21T23:05:22.383Z,19.32
2023-05-21T23:07:49.487Z,18.68
2023-05-21T23:10:16.335Z,18.99
2023-05-21T23:12:43.022Z,18.60
2023-05-21T23:15:10.658Z,18.89
2023-05-21T23:17:37.866Z,18.88
2023-05-21T23:20:06.073Z,18.73
2023-05-21T23:22:32.771Z,18.56
2023-05-21T23:24:59.574Z,18.65
2023-05-21T23:27:26.328Z,18.65
2023-05-21T23:29:53.006Z,18.70
2023-05-21T23:32:19.649Z,18.54
2023-05-21T23:34:47.139Z,18.62
2023-05-21T23:37:13.831Z,18.16
2023-05-21T23:39:40.701Z,18.46
2023-05-21T23:42:07.574Z,18.45
2023-05-21T23:44:34.161Z,18.50
2023-05-21T23:47:01.183Z,18.51
2023-05-21T23:49:27.820Z,18.50
2023-05-21T23:51:54.577Z,18.60
2023-05-21T23:54:21.324Z,18.39
2023-05-21T23:56:48.006Z,18.46
2023-05-21T23:59:16.241Z,18.38
